createdAt,value
2022-09-07T00:00:35.033Z,69.99
2022-09-07T00:01:33.459Z,69.15
2022-09-07T00:02:33.389Z,69.35
2022-09-07T00:03:33.413Z,69.25
2022-09-07T00:04:33.375Z,68.45
2022-09-07T00:05:33.345Z,69.35
2022-09-07T00:06:33.382Z,69.85
2022-09-07T00:07:33.333Z,69.79
2022-09-07T00:08:33.294Z,69.69
2022-09-07T00:09:34.432Z,69.99
2022-09-07T00:10:33.300Z,69.99
2022-09-07T00:11:33.381Z,69.96
2022-09-07T00:12:33.458Z,70.19
2022-09-07T00:13:33.381Z,70.50
2022-09-07T00:14:33.413Z,70.19
2022-09-07T00:15:33.347Z,70.29
2022-09-07T00:16:33.420Z,70.03
2022-09-07T00:17:33.393Z,70.12
2022-09-07T00:18:33.399Z,70.63
2022-09-07T00:19:33.346Z,70.73
2022-09-07T00:20:33.313Z,70.43
2022-09-07T00:21:33.301Z,70.93
2022-09-07T00:22:34.350Z,70.43
2022-09-07T00:23:33.325Z,70.89
2022-09-07T00:24:33.335Z,70.19
2022-09-07T00:25:33.307Z,70.39
2022-09-07T00:26:33.403Z,69.99
2022-09-07T00:27:33.279Z,70.09
2022-09-07T00:28:33.326Z,70.79
2022-09-07T00:29:33.195Z,71.40
2022-09-07T00:30:33.181Z,71.94
2022-09-07T00:31:33.303Z,71.60
2022-09-07T00:32:33.162Z,71.70
2022-09-07T00:33:33.232Z,71.80
2022-09-07T00:34:33.153Z,71.30
2022-09-07T00:35:33.129Z,71.80
2022-09-07T00:36:33.096Z,71.60
2022-09-07T00:37:33.107Z,72.24
2022-09-07T00:38:33.118Z,72.14
2022-09-07T00:39:33.266Z,72.03
2022-09-07T00:40:33.220Z,71.87
2022-09-07T00:41:33.191Z,71.73
2022-09-07T00:42:33.181Z,71.03
2022-09-07T00:43:33.212Z,70.53
2022-09-07T00:44:33.190Z,70.12
2022-09-07T00:45:33.167Z,70.23
2022-09-07T00:46:33.209Z,70.23
2022-09-07T00:47:33.182Z,70.43
2022-09-07T00:48:33.128Z,70.03
2022-09-07T00:49:33.182Z,70.32
2022-09-07T00:50:33.150Z,70.59
2022-09-07T00:51:33.106Z,70.43
2022-09-07T00:52:33.094Z,70.63
2022-09-07T00:53:33.073Z,70.29
2022-09-07T00:54:33.063Z,70.39
2022-09-07T00:55:33.214Z,70.09
2022-09-07T00:56:33.037Z,69.56
2022-09-07T00:57:33.050Z,69.96
2022-09-07T00:58:33.082Z,69.89
2022-09-07T00:59:32.922Z,70.06
2022-09-07T01:00:32.937Z,69.56
2022-09-07T01:01:34.089Z,69.76
2022-09-07T01:02:33.037Z,70.06
2022-09-07T01:03:32.922Z,69.85
2022-09-07T01:04:32.940Z,69.65
2022-09-07T01:05:32.881Z,69.56
2022-09-07T01:06:32.976Z,69.45
2022-09-07T01:07:32.887Z,69.25
2022-09-07T01:08:33.016Z,69.35
2022-09-07T01:09:32.981Z,69.25
2022-09-07T01:10:33.011Z,68.65
2022-09-07T01:11:32.941Z,69.18
2022-09-07T01:12:33.000Z,70.43
2022-09-07T01:13:32.930Z,70.76
2022-09-07T01:14:33.996Z,70.76
2022-09-07T01:15:32.962Z,71.67
2022-09-07T01:16:32.915Z,71.06
2022-09-07T01:17:32.953Z,70.66
2022-09-07T01:18:32.899Z,71.26
2022-09-07T01:19:32.873Z,70.96
2022-09-07T01:20:32.927Z,70.46
2022-09-07T01:21:32.863Z,70.96
2022-09-07T01:22:32.905Z,71.47
2022-09-07T01:23:32.927Z,71.56
2022-09-07T01:24:32.866Z,71.87
2022-09-07T01:25:32.826Z,72.07
2022-09-07T01:26:32.821Z,72.57
2022-09-07T01:27:32.892Z,72.41
2022-09-07T01:28:32.890Z,72.27
2022-09-07T01:29:32.787Z,72.57
2022-09-07T01:30:32.724Z,72.47
2022-09-07T01:31:32.778Z,72.20
2022-09-07T01:32:32.723Z,72.31
2022-09-07T01:33:32.693Z,72.51
2022-09-07T01:34:33.775Z,72.31
2022-09-07T01:35:32.679Z,72.14
2022-09-07T01:36:32.654Z,72.24
2022-09-07T01:37:32.706Z,72.04
2022-09-07T01:38:32.672Z,72.14
2022-09-07T01:39:32.878Z,71.73
2022-09-07T01:40:32.811Z,72.34
2022-09-07T01:41:32.745Z,72.31
2022-09-07T01:42:32.747Z,72.51
2022-09-07T01:43:32.751Z,71.91
2022-09-07T01:44:32.751Z,71.20
2022-09-07T01:45:32.753Z,71.16
2022-09-07T01:46:32.797Z,71.06
2022-09-07T01:47:32.690Z,71.26
2022-09-07T01:48:32.692Z,71.87
2022-09-07T01:49:32.678Z,71.70
2022-09-07T01:50:32.741Z,71.91
2022-09-07T01:51:32.662Z,71.70
2022-09-07T01:52:32.721Z,71.80
2022-09-07T01:53:32.633Z,71.91
2022-09-07T01:54:32.724Z,71.73
2022-09-07T01:55:32.638Z,71.80
2022-09-07T01:56:33.002Z,71.60
2022-09-07T01:57:32.529Z,71.80
2022-09-07T01:58:32.616Z,71.47
2022-09-07T01:59:32.639Z,70.46
2022-09-07T02:00:32.510Z,70.86
2022-09-07T02:01:32.622Z,70.86
2022-09-07T02:02:32.545Z,70.12
2022-09-07T02:03:32.464Z,70.03
2022-09-07T02:04:32.551Z,70.12
2022-09-07T02:05:32.559Z,70.73
2022-09-07T02:06:32.559Z,70.63
2022-09-07T02:07:32.605Z,70.83
2022-09-07T02:08:32.543Z,70.83
2022-09-07T02:09:32.507Z,70.32
2022-09-07T02:10:33.508Z,70.23
2022-09-07T02:11:32.474Z,69.92
2022-09-07T02:12:32.538Z,69.92
2022-09-07T02:13:32.518Z,70.03
2022-09-07T02:14:32.463Z,70.09
2022-09-07T02:15:32.551Z,70.09
2022-09-07T02:16:32.475Z,70.23
2022-09-07T02:17:32.610Z,70.29
2022-09-07T02:18:32.463Z,70.50
2022-09-07T02:19:32.463Z,70.23
2022-09-07T02:20:32.430Z,70.19
2022-09-07T02:21:32.403Z,70.19
2022-09-07T02:22:32.370Z,70.29
2022-09-07T02:23:32.373Z,70.09
2022-09-07T02:24:32.341Z,70.09
2022-09-07T02:25:32.457Z,70.29
2022-09-07T02:26:32.409Z,70.19
2022-09-07T02:27:32.410Z,70.23
2022-09-07T02:28:32.729Z,70.43
2022-09-07T02:29:32.355Z,72.34
2022-09-07T02:30:32.393Z,72.71
2022-09-07T02:31:32.405Z,73.85
2022-09-07T02:32:32.374Z,73.65
2022-09-07T02:33:32.389Z,74.35
2022-09-07T02:34:32.428Z,73.79
2022-09-07T02:35:32.356Z,73.88
2022-09-07T02:36:32.410Z,75.30
2022-09-07T02:37:32.380Z,75.50
2022-09-07T02:38:32.480Z,75.80
2022-09-07T02:39:32.415Z,75.40
2022-09-07T02:40:32.325Z,75.26
2022-09-07T02:41:32.313Z,75.56
2022-09-07T02:42:32.288Z,76.71
2022-09-07T02:43:32.326Z,77.38
2022-09-07T02:44:32.297Z,77.68
2022-09-07T02:45:32.230Z,77.88
2022-09-07T02:46:32.282Z,76.67
2022-09-07T02:47:32.147Z,77.08
2022-09-07T02:48:32.282Z,75.46
2022-09-07T02:49:32.132Z,75.67
2022-09-07T02:50:32.159Z,74.82
2022-09-07T02:51:32.150Z,73.92
2022-09-07T02:52:32.127Z,73.52
2022-09-07T02:53:32.156Z,73.72
2022-09-07T02:54:32.218Z,73.98
2022-09-07T02:55:32.243Z,73.28
2022-09-07T02:56:32.219Z,72.57
2022-09-07T02:57:32.204Z,72.24
2022-09-07T02:58:32.215Z,71.94
2022-09-07T02:59:32.215Z,71.70
2022-09-07T03:00:32.192Z,72.81
2022-09-07T03:01:32.724Z,73.00
2022-09-07T03:02:32.211Z,73.21
2022-09-07T03:03:32.136Z,72.47
2022-09-07T03:04:32.131Z,72.77
2022-09-07T03:05:32.137Z,71.77
2022-09-07T03:06:32.147Z,71.87
2022-09-07T03:07:34.602Z,72.17
2022-09-07T03:08:33.121Z,71.97
2022-09-07T03:09:32.120Z,72.07
2022-09-07T03:10:32.090Z,72.24
2022-09-07T03:11:32.083Z,71.73
2022-09-07T03:12:32.144Z,71.63
2022-09-07T03:13:32.061Z,73.27
2022-09-07T03:14:32.114Z,73.98
2022-09-07T03:15:32.053Z,74.08
2022-09-07T03:16:31.976Z,74.28
2022-09-07T03:17:32.094Z,75.42
2022-09-07T03:18:32.158Z,75.49
2022-09-07T03:19:31.940Z,75.32
2022-09-07T03:20:31.935Z,76.12
2022-09-07T03:21:31.930Z,75.42
2022-09-07T03:22:31.962Z,75.52
2022-09-07T03:23:32.056Z,76.03
2022-09-07T03:24:32.030Z,76.23
2022-09-07T03:25:32.016Z,76.03
2022-09-07T03:26:31.962Z,76.43
2022-09-07T03:27:31.927Z,77.13
2022-09-07T03:28:32.113Z,77.63
2022-09-07T03:29:31.971Z,77.13
2022-09-07T03:30:32.018Z,76.53
2022-09-07T03:31:31.924Z,76.43
2022-09-07T03:32:31.888Z,76.93
2022-09-07T03:33:31.920Z,78.74
2022-09-07T03:34:31.949Z,78.94
2022-09-07T03:35:31.922Z,79.58
2022-09-07T03:36:31.931Z,80.08
2022-09-07T03:37:31.920Z,80.08
2022-09-07T03:38:31.999Z,79.88
2022-09-07T03:39:32.007Z,80.12
2022-09-07T03:40:31.918Z,81.90
2022-09-07T03:41:31.917Z,81.53
2022-09-07T03:42:31.899Z,82.10
2022-09-07T03:43:31.770Z,82.10
2022-09-07T03:44:31.727Z,82.20
2022-09-07T03:45:31.800Z,82.20
2022-09-07T03:46:31.790Z,81.90
2022-09-07T03:47:31.774Z,81.70
2022-09-07T03:48:31.948Z,82.10
2022-09-07T03:49:31.711Z,82.40
2022-09-07T03:50:31.731Z,82.50
2022-09-07T03:51:31.668Z,81.79
2022-09-07T03:52:31.705Z,81.79
2022-09-07T03:53:31.704Z,82.30
2022-09-07T03:54:31.788Z,81.85
2022-09-07T03:55:31.785Z,82.80
2022-09-07T03:56:31.821Z,83.71
2022-09-07T03:57:31.757Z,83.00
2022-09-07T03:58:31.870Z,83.61
2022-09-07T03:59:31.740Z,82.60
2022-09-07T04:00:31.738Z,84.31
2022-09-07T04:01:31.875Z,84.85
2022-09-07T04:02:31.822Z,86.30
2022-09-07T04:03:31.683Z,87.05
2022-09-07T04:04:31.740Z,87.25
2022-09-07T04:05:31.675Z,87.65
2022-09-07T04:06:32.027Z,88.36
2022-09-07T04:07:31.673Z,88.76
2022-09-07T04:08:31.755Z,88.96
2022-09-07T04:09:31.659Z,88.76
2022-09-07T04:10:31.627Z,89.01
2022-09-07T04:11:31.650Z,89.37
2022-09-07T04:12:31.666Z,89.17
2022-09-07T04:13:31.683Z,88.76
2022-09-07T04:14:32.622Z,88.66
2022-09-07T04:15:31.552Z,89.26
2022-09-07T04:16:31.591Z,89.47
2022-09-07T04:17:31.538Z,88.86
2022-09-07T04:18:31.745Z,88.66
2022-09-07T04:19:31.543Z,89.26
2022-09-07T04:20:31.475Z,89.41
2022-09-07T04:21:31.589Z,89.21
2022-09-07T04:22:31.611Z,88.70
2022-09-07T04:23:31.571Z,89.01
2022-09-07T04:24:31.574Z,89.21
2022-09-07T04:25:31.573Z,89.21
2022-09-07T04:26:31.530Z,89.05
2022-09-07T04:27:31.579Z,88.81
2022-09-07T04:28:31.683Z,88.90
2022-09-07T04:29:31.623Z,88.70
2022-09-07T04:30:31.578Z,89.31
2022-09-07T04:31:31.526Z,89.21
2022-09-07T04:32:31.659Z,89.21
2022-09-07T04:33:31.612Z,89.65
2022-09-07T04:34:31.442Z,89.35
2022-09-07T04:35:31.434Z,88.95
2022-09-07T04:36:31.424Z,89.65
2022-09-07T04:37:32.421Z,90.77
2022-09-07T04:38:31.539Z,90.97
2022-09-07T04:39:31.466Z,91.31
2022-09-07T04:40:31.493Z,90.81
2022-09-07T04:41:31.443Z,91.01
2022-09-07T04:42:31.459Z,91.11
2022-09-07T04:43:31.636Z,90.30
2022-09-07T04:44:31.480Z,90.26
2022-09-07T04:45:31.491Z,89.59
2022-09-07T04:46:31.451Z,89.15
2022-09-07T04:47:31.419Z,90.50
2022-09-07T04:48:31.594Z,90.91
2022-09-07T04:49:31.435Z,90.70
2022-09-07T04:50:31.502Z,91.11
2022-09-07T04:51:31.411Z,90.97
2022-09-07T04:52:31.437Z,91.06
2022-09-07T04:53:31.394Z,90.92
2022-09-07T04:54:31.397Z,91.13
2022-09-07T04:55:31.417Z,90.82
2022-09-07T04:56:31.408Z,90.01
2022-09-07T04:57:31.604Z,90.32
2022-09-07T04:58:31.356Z,90.52
2022-09-07T04:59:31.231Z,91.27
2022-09-07T05:00:31.253Z,91.57
2022-09-07T05:01:31.364Z,91.77
2022-09-07T05:02:31.260Z,92.27
2022-09-07T05:03:31.218Z,92.47
2022-09-07T05:04:31.253Z,92.38
2022-09-07T05:05:31.206Z,92.07
2022-09-07T05:06:31.265Z,92.23
2022-09-07T05:07:31.285Z,92.27
2022-09-07T05:08:31.379Z,92.07
2022-09-07T05:09:31.328Z,92.27
2022-09-07T05:10:31.219Z,92.43
2022-09-07T05:11:31.360Z,92.27
2022-09-07T05:12:31.248Z,92.07
2022-09-07T05:13:31.333Z,93.38
2022-09-07T05:14:31.259Z,93.08
2022-09-07T05:15:31.176Z,93.59
2022-09-07T05:16:31.279Z,93.33
2022-09-07T05:17:31.235Z,93.59
2022-09-07T05:18:31.371Z,93.38
2022-09-07T05:19:31.174Z,92.27
2022-09-07T05:20:31.230Z,92.47
2022-09-07T05:21:31.196Z,91.67
2022-09-07T05:22:31.197Z,91.67
2022-09-07T05:23:31.140Z,91.93
2022-09-07T05:24:31.171Z,91.13
2022-09-07T05:25:31.116Z,91.47
2022-09-07T05:26:31.190Z,90.62
2022-09-07T05:27:31.187Z,90.72
2022-09-07T05:28:31.431Z,90.62
2022-09-07T05:31:33.024Z,89.26
2022-09-07T05:32:31.076Z,88.56
2022-09-07T05:34:33.314Z,89.17
2022-09-07T05:35:31.040Z,89.17
2022-09-07T05:36:31.182Z,89.17
2022-09-07T05:37:30.960Z,89.17
2022-09-07T05:38:31.317Z,88.96
2022-09-07T05:39:31.143Z,88.96
2022-09-07T05:40:31.029Z,89.57
2022-09-07T05:41:31.073Z,88.76
2022-09-07T05:42:31.107Z,88.96
2022-09-07T05:43:31.001Z,88.96
2022-09-07T05:44:46.496Z,89.26
2022-09-07T05:45:33.036Z,89.87
2022-09-07T05:46:30.992Z,89.23
2022-09-07T05:47:30.995Z,89.06
2022-09-07T05:48:31.053Z,89.43
2022-09-07T05:49:31.078Z,89.23
2022-09-07T05:50:30.956Z,89.37
2022-09-07T05:51:31.040Z,89.43
2022-09-07T05:52:30.962Z,89.23
2022-09-07T05:53:30.972Z,89.83
2022-09-07T05:54:30.919Z,88.68
2022-09-07T05:55:31.088Z,88.98
2022-09-07T05:56:31.002Z,88.82
2022-09-07T05:57:30.985Z,88.28
2022-09-07T05:58:30.867Z,88.58
2022-09-07T05:59:30.850Z,88.03
2022-09-07T06:00:30.813Z,87.53
2022-09-07T06:01:30.798Z,87.02
2022-09-07T06:02:30.855Z,87.07
2022-09-07T06:03:30.853Z,87.98
2022-09-07T06:04:30.775Z,88.82
2022-09-07T06:05:30.761Z,89.53
2022-09-07T06:06:30.881Z,90.13
2022-09-07T06:07:30.879Z,90.49
2022-09-07T06:08:30.917Z,89.99
2022-09-07T06:09:30.908Z,88.74
2022-09-07T06:10:46.142Z,89.14
2022-09-07T06:11:33.183Z,88.03
2022-09-07T06:12:30.847Z,88.13
2022-09-07T06:13:30.907Z,89.18
2022-09-07T06:14:30.881Z,88.88
2022-09-07T07:32:36.020Z,83.57
2022-09-07T07:33:37.523Z,81.56
2022-09-07T07:34:37.159Z,81.52
2022-09-07T07:35:37.073Z,81.62
2022-09-07T07:36:36.954Z,81.79
2022-09-07T07:37:37.042Z,80.98
2022-09-07T07:40:39.798Z,80.58
2022-09-07T07:41:54.412Z,79.78
2022-09-07T07:42:38.889Z,78.58
2022-09-07T07:43:36.940Z,77.64
2022-09-07T07:44:36.814Z,76.34
2022-09-07T07:46:38.797Z,73.83
2022-09-07T07:47:37.875Z,72.93
2022-09-07T07:48:36.789Z,72.69
2022-09-07T07:49:36.886Z,73.53
2022-09-07T07:50:36.952Z,74.10
2022-09-07T07:53:41.581Z,73.80
2022-09-07T07:54:37.858Z,73.00
2022-09-07T07:55:44.513Z,73.30
2022-09-07T07:56:38.948Z,74.30
2022-09-07T07:57:36.852Z,74.87
2022-09-07T07:58:37.873Z,74.46
2022-09-07T07:59:36.844Z,74.46
2022-09-07T08:00:53.032Z,74.73
2022-09-07T08:01:38.767Z,74.73
2022-09-07T08:02:36.805Z,73.33
2022-09-07T08:03:36.769Z,73.83
2022-09-07T08:04:36.807Z,74.43
2022-09-07T08:05:36.902Z,72.83
2022-09-07T08:06:36.757Z,73.13
2022-09-07T08:07:36.732Z,73.22
2022-09-07T08:08:36.637Z,73.22
2022-09-07T08:09:36.703Z,73.83
2022-09-07T08:10:36.752Z,71.83
2022-09-07T08:11:36.763Z,71.42
2022-09-07T08:12:36.678Z,71.83
2022-09-07T08:13:36.719Z,71.62
2022-09-07T08:14:36.663Z,71.89
2022-09-07T08:15:36.768Z,71.69
2022-09-07T08:16:36.728Z,71.69
2022-09-07T08:17:36.661Z,70.09
2022-09-07T08:18:36.683Z,70.59
2022-09-07T08:19:36.626Z,71.49
2022-09-07T08:20:36.706Z,70.36
2022-09-07T08:21:36.655Z,69.99
2022-09-07T08:22:36.607Z,70.29
2022-09-07T08:23:36.667Z,70.99
2022-09-07T08:24:36.677Z,69.79
2022-09-07T08:25:36.655Z,69.49
2022-09-07T08:26:36.703Z,71.26
2022-09-07T08:27:36.546Z,70.32
2022-09-07T08:28:36.626Z,69.43
2022-09-07T08:29:36.585Z,69.02
2022-09-07T08:30:36.551Z,68.10
2022-09-07T08:31:36.673Z,69.69
2022-09-07T08:32:36.615Z,68.40
2022-09-07T08:33:36.477Z,69.09
2022-09-07T08:34:36.431Z,67.49
2022-09-07T08:35:36.472Z,67.69
2022-09-07T08:36:36.474Z,68.56
2022-09-07T08:37:36.638Z,67.76
2022-09-07T08:38:36.458Z,68.56
2022-09-07T08:39:36.487Z,69.32
2022-09-07T08:40:36.409Z,67.33
2022-09-07T08:41:36.387Z,66.86
2022-09-07T08:42:37.409Z,67.57
2022-09-07T08:43:36.437Z,67.93
2022-09-07T08:44:36.487Z,67.33
2022-09-07T08:45:36.536Z,67.13
2022-09-07T08:46:36.537Z,66.73
2022-09-07T08:47:36.517Z,66.53
2022-09-07T08:48:36.430Z,66.53
2022-09-07T08:49:36.449Z,67.17
2022-09-07T08:50:36.454Z,65.70
2022-09-07T08:51:36.426Z,65.80
2022-09-07T08:52:36.377Z,66.43
2022-09-07T08:53:36.473Z,67.33
2022-09-07T08:54:36.462Z,66.10
2022-09-07T08:55:36.452Z,65.80
2022-09-07T08:56:36.435Z,65.61
2022-09-07T08:57:36.285Z,66.00
2022-09-07T08:58:51.140Z,65.17
2022-09-07T08:59:38.308Z,64.48
2022-09-07T09:00:36.401Z,64.64
2022-09-07T09:01:37.095Z,63.98
2022-09-07T09:02:43.606Z,64.31
2022-09-07T09:04:15.370Z,65.20
2022-09-07T09:05:16.121Z,65.70
2022-09-07T09:05:38.324Z,65.70
2022-09-07T09:06:36.392Z,66.10
2022-09-07T09:07:36.326Z,64.18
2022-09-07T09:08:36.430Z,64.37
2022-09-07T09:09:36.481Z,64.37
2022-09-07T09:10:36.347Z,64.37
2022-09-07T09:11:36.279Z,63.98
2022-09-07T09:12:37.831Z,65.27
2022-09-07T09:13:37.246Z,64.34
2022-09-07T09:14:37.335Z,64.04
2022-09-07T09:15:36.293Z,64.67
2022-09-07T09:16:36.286Z,64.31
2022-09-07T09:17:36.248Z,64.01
2022-09-07T09:18:36.276Z,63.52
2022-09-07T09:19:36.254Z,63.25
2022-09-07T09:20:36.282Z,64.34
2022-09-07T09:21:36.275Z,64.28
2022-09-07T09:22:36.269Z,64.58
2022-09-07T09:23:36.206Z,64.58
2022-09-07T09:24:36.329Z,65.84
2022-09-07T09:25:36.216Z,66.64
2022-09-07T09:26:36.216Z,64.28
2022-09-07T09:27:36.149Z,63.89
2022-09-07T09:28:36.366Z,62.66
2022-09-07T09:29:36.140Z,62.89
2022-09-07T09:30:36.107Z,62.99
2022-09-07T09:31:36.174Z,63.49
2022-09-07T09:32:36.593Z,63.19
2022-09-07T09:33:36.052Z,63.79
2022-09-07T09:34:36.146Z,62.69
2022-09-07T09:35:36.062Z,62.82
2022-09-07T09:36:35.983Z,63.62
2022-09-07T09:37:36.160Z,64.09
2022-09-07T09:38:36.125Z,62.69
2022-09-07T09:39:36.174Z,62.56
2022-09-07T09:40:36.514Z,62.59
2022-09-07T09:41:36.167Z,62.82
2022-09-07T09:42:36.135Z,63.69
2022-09-07T09:43:36.163Z,62.89
2022-09-07T09:44:36.111Z,62.66
2022-09-07T09:46:38.127Z,62.56
2022-09-07T09:47:36.234Z,61.27
2022-09-07T09:48:36.077Z,61.24
2022-09-07T09:49:36.025Z,62.60
2022-09-07T09:52:47.795Z,60.52
2022-09-07T09:53:38.019Z,60.22
2022-09-07T09:54:35.977Z,60.12
2022-09-07T09:55:36.482Z,60.31
2022-09-07T09:56:36.881Z,61.21
2022-09-07T09:57:36.176Z,59.99
2022-09-07T10:01:21.054Z,61.58
2022-09-07T10:03:10.549Z,61.21
2022-09-07T10:04:37.842Z,60.82
2022-09-07T10:05:35.833Z,60.42
2022-09-07T10:06:36.043Z,60.31
2022-09-07T10:07:35.913Z,60.02
2022-09-07T10:08:36.044Z,60.12
2022-09-07T10:09:37.975Z,60.42
2022-09-07T10:10:36.874Z,60.02
2022-09-07T10:12:05.787Z,60.74
2022-09-07T10:12:37.765Z,61.54
2022-09-07T10:13:35.913Z,62.63
2022-09-07T10:14:35.853Z,61.64
2022-09-07T10:15:40.599Z,62.40
2022-09-07T10:16:37.824Z,61.18
2022-09-07T10:17:35.884Z,60.19
2022-09-07T10:18:36.021Z,59.56
2022-09-07T10:19:35.844Z,60.06
2022-09-07T10:20:35.785Z,59.89
2022-09-07T10:21:35.826Z,59.99
2022-09-07T10:22:35.839Z,60.49
2022-09-07T10:23:35.783Z,60.22
2022-09-07T10:24:35.763Z,60.12
2022-09-07T10:25:35.894Z,60.42
2022-09-07T10:26:35.741Z,59.62
2022-09-07T10:27:35.658Z,59.89
2022-09-07T10:29:37.740Z,60.16
2022-09-07T10:30:35.751Z,58.90
2022-09-07T10:31:35.834Z,59.12
2022-09-07T10:32:35.767Z,59.99
2022-09-07T10:33:35.726Z,58.90
2022-09-07T10:34:35.761Z,59.79
2022-09-07T10:35:35.763Z,58.90
2022-09-07T10:36:36.117Z,59.00
2022-09-07T10:37:35.703Z,59.69
2022-09-07T10:38:35.751Z,59.86
2022-09-07T10:39:35.784Z,59.07
2022-09-07T10:40:35.740Z,58.97
2022-09-07T10:41:35.670Z,58.54
2022-09-07T10:42:35.640Z,58.17
2022-09-07T10:43:35.652Z,60.33
2022-09-07T10:44:35.683Z,58.04
2022-09-07T10:45:35.901Z,57.85
2022-09-07T10:47:37.583Z,58.97
2022-09-07T10:48:35.529Z,58.37
2022-09-07T10:49:35.547Z,57.55
2022-09-07T10:50:35.581Z,57.53
2022-09-07T10:51:35.493Z,58.44
2022-09-07T10:52:35.553Z,58.15
2022-09-07T10:53:43.122Z,57.92
2022-09-07T10:54:37.501Z,57.79
2022-09-07T10:55:35.496Z,57.50
2022-09-07T10:56:35.682Z,56.30
2022-09-07T10:57:35.582Z,56.53
2022-09-07T10:59:05.185Z,57.03
2022-09-07T11:00:37.431Z,56.51
2022-09-07T11:01:35.599Z,56.51
2022-09-07T11:02:35.615Z,58.02
2022-09-07T11:03:35.579Z,57.53
2022-09-07T11:04:35.495Z,57.40
2022-09-07T11:05:38.398Z,57.50
2022-09-07T11:06:36.543Z,56.38
2022-09-07T11:07:35.612Z,56.57
2022-09-07T11:09:15.760Z,56.95
2022-09-07T11:09:37.432Z,55.26
2022-09-07T11:10:35.361Z,55.58
2022-09-07T11:12:04.924Z,56.87
2022-09-07T11:12:37.397Z,56.70
2022-09-07T11:13:50.217Z,57.79
2022-09-07T11:14:37.433Z,58.19
2022-09-07T11:15:35.370Z,57.76
2022-09-07T11:16:51.385Z,56.38
2022-09-07T11:17:37.355Z,56.48
2022-09-07T11:18:35.353Z,56.38
2022-09-07T11:19:36.464Z,56.48
2022-09-07T11:20:35.409Z,56.77
2022-09-07T11:22:37.322Z,56.38
2022-09-07T11:23:40.328Z,58.65
2022-09-07T11:24:37.632Z,57.97
2022-09-07T11:25:35.505Z,56.74
2022-09-07T11:26:35.402Z,55.85
2022-09-07T11:27:35.461Z,56.13
2022-09-07T11:28:35.344Z,55.93
2022-09-07T11:29:36.248Z,54.42
2022-09-07T11:30:35.840Z,55.04
2022-09-07T11:31:35.457Z,54.37
2022-09-07T11:32:35.204Z,55.78
2022-09-07T11:33:35.280Z,55.78
2022-09-07T11:34:35.275Z,56.15
2022-09-07T11:35:35.199Z,54.77
2022-09-07T11:36:35.380Z,54.47
2022-09-07T11:37:35.288Z,55.98
2022-09-07T11:38:35.375Z,56.45
2022-09-07T11:39:35.462Z,56.02
2022-09-07T11:40:35.302Z,54.22
2022-09-07T11:41:35.311Z,54.71
2022-09-07T11:42:43.196Z,54.49
2022-09-07T11:43:37.223Z,53.60
2022-09-07T11:44:35.257Z,53.11
2022-09-07T11:45:35.317Z,53.40
2022-09-07T11:46:35.307Z,53.30
2022-09-07T11:47:35.282Z,53.42
2022-09-07T11:48:35.532Z,53.23
2022-09-07T11:49:35.097Z,53.72
2022-09-07T11:50:35.440Z,53.00
2022-09-07T11:51:35.080Z,52.22
2022-09-07T11:52:35.193Z,52.22
2022-09-07T11:53:35.095Z,51.70
2022-09-07T11:54:35.092Z,51.62
2022-09-07T11:55:35.156Z,51.82
2022-09-07T11:56:36.698Z,52.81
2022-09-07T11:57:36.160Z,52.22
2022-09-07T11:58:35.129Z,52.31
2022-09-07T11:59:37.006Z,51.79
2022-09-07T12:00:36.157Z,51.57
2022-09-07T12:01:35.235Z,51.87
2022-09-07T12:02:57.697Z,52.46
2022-09-07T12:03:37.159Z,51.15
2022-09-07T12:04:35.224Z,51.03
2022-09-07T12:05:35.124Z,50.93
2022-09-07T12:06:35.106Z,50.85
2022-09-07T12:07:35.119Z,49.77
2022-09-07T12:08:35.068Z,50.59
2022-09-07T12:09:35.103Z,50.90
2022-09-07T12:10:35.069Z,51.99
2022-09-07T12:11:34.978Z,51.67
2022-09-07T12:12:34.980Z,51.07
2022-09-07T12:13:34.971Z,51.75
2022-09-07T12:14:34.982Z,49.57
2022-09-07T12:15:34.950Z,48.58
2022-09-07T12:16:35.001Z,48.49
2022-09-07T12:17:35.007Z,48.36
2022-09-07T12:18:35.014Z,49.77
2022-09-07T12:19:34.974Z,49.57
2022-09-07T12:20:35.005Z,49.87
2022-09-07T12:21:34.993Z,50.16
2022-09-07T12:22:34.998Z,49.87
2022-09-07T12:23:35.017Z,49.05
2022-09-07T12:24:35.048Z,48.75
2022-09-07T12:25:34.991Z,48.34
2022-09-07T12:26:35.105Z,48.81
2022-09-07T12:27:34.920Z,48.32
2022-09-07T12:28:35.183Z,48.91
2022-09-07T12:29:35.902Z,48.71
2022-09-07T12:30:34.854Z,48.69
2022-09-07T12:31:39.635Z,47.90
2022-09-07T12:33:36.783Z,47.72
2022-09-07T12:34:34.751Z,47.33
2022-09-07T12:35:34.800Z,46.96
2022-09-07T12:36:34.762Z,47.77
2022-09-07T12:37:34.839Z,47.97
2022-09-07T12:38:34.852Z,47.47
2022-09-07T12:39:34.892Z,47.97
2022-09-07T12:40:34.891Z,47.75
2022-09-07T12:41:34.863Z,46.44
2022-09-07T12:42:37.263Z,47.03
2022-09-07T12:43:34.830Z,46.44
2022-09-07T12:44:34.775Z,47.03
2022-09-07T12:45:34.885Z,47.13
2022-09-07T12:46:35.318Z,47.03
2022-09-07T12:47:34.865Z,46.94
2022-09-07T12:48:34.784Z,46.81
2022-09-07T12:49:34.784Z,46.03
2022-09-07T12:50:38.263Z,46.72
2022-09-07T12:52:36.665Z,46.08
2022-09-07T12:53:34.893Z,45.19
2022-09-07T12:54:34.728Z,44.58
2022-09-07T12:56:15.645Z,44.90
2022-09-07T12:56:35.640Z,44.58
2022-09-07T12:57:34.784Z,45.17
2022-09-07T12:58:34.586Z,44.38
2022-09-07T12:59:34.594Z,44.90
2022-09-07T13:00:34.730Z,45.63
2022-09-07T13:01:34.750Z,46.89
2022-09-07T13:02:34.835Z,44.60
2022-09-07T13:03:58.661Z,44.21
2022-09-07T13:04:36.550Z,44.70
2022-09-07T13:05:34.612Z,45.14
2022-09-07T13:07:04.125Z,46.74
2022-09-07T13:07:36.539Z,45.24
2022-09-07T13:08:34.683Z,45.51
2022-09-07T13:09:34.628Z,45.98
2022-09-07T13:10:35.172Z,45.68
2022-09-07T13:11:34.616Z,44.44
2022-09-07T13:14:08.901Z,42.00
2022-09-07T13:14:36.472Z,42.18
2022-09-07T13:15:34.628Z,42.03
2022-09-07T13:17:16.038Z,39.17
2022-09-07T13:17:36.480Z,39.86
2022-09-07T13:18:34.566Z,40.48
2022-09-07T13:19:34.440Z,40.78
2022-09-07T13:20:39.682Z,40.03
2022-09-07T13:21:36.487Z,39.47
2022-09-07T13:22:34.582Z,39.70
2022-09-07T13:23:34.465Z,41.05
2022-09-07T13:24:49.837Z,37.81
2022-09-07T13:25:36.571Z,39.37
2022-09-07T13:26:34.402Z,38.08
2022-09-07T13:27:34.415Z,38.10
2022-09-07T13:28:34.550Z,38.47
2022-09-07T13:29:34.524Z,37.82
2022-09-07T13:30:34.540Z,39.29
2022-09-07T13:31:34.681Z,38.08
2022-09-07T13:33:36.427Z,39.39
2022-09-07T13:34:34.487Z,39.29
2022-09-07T13:35:34.522Z,39.07
2022-09-07T13:36:34.733Z,39.31
2022-09-07T13:37:34.650Z,38.90
2022-09-07T13:38:34.461Z,39.50
2022-09-07T13:39:34.596Z,41.73
2022-09-07T13:40:34.455Z,42.93
2022-09-07T13:41:34.347Z,42.14
2022-09-07T13:42:34.325Z,43.89
2022-09-07T13:43:34.382Z,42.44
2022-09-07T13:44:34.398Z,43.84
2022-09-07T13:45:34.322Z,44.03
2022-09-07T13:46:34.308Z,43.05
2022-09-07T13:47:34.261Z,43.93
2022-09-07T13:48:34.290Z,42.93
2022-09-07T13:49:34.281Z,44.06
2022-09-07T13:50:34.402Z,45.08
2022-09-07T13:51:34.368Z,44.42
2022-09-07T13:52:34.247Z,45.70
2022-09-07T13:53:34.430Z,44.42
2022-09-07T13:54:34.529Z,44.51
2022-09-07T13:55:34.428Z,43.59
2022-09-07T13:56:34.426Z,42.24
2022-09-07T13:57:34.378Z,40.48
2022-09-07T13:58:34.357Z,39.94
2022-09-07T13:59:34.339Z,38.74
2022-09-07T14:00:34.411Z,38.31
2022-09-07T14:01:34.385Z,37.79
2022-09-07T14:02:34.318Z,38.04
2022-09-07T14:03:34.366Z,38.35
2022-09-07T14:04:34.275Z,36.77
2022-09-07T14:05:34.304Z,37.79
2022-09-07T14:06:34.485Z,34.45
2022-09-07T14:07:35.153Z,35.66
2022-09-07T14:08:39.239Z,35.38
2022-09-07T14:09:36.220Z,36.96
2022-09-07T14:10:34.143Z,36.40
2022-09-07T14:11:34.263Z,38.53
2022-09-07T14:12:34.131Z,34.62
2022-09-07T14:13:34.108Z,36.10
2022-09-07T14:14:34.153Z,35.89
2022-09-07T14:15:34.215Z,34.78
2022-09-07T14:16:34.227Z,34.09
2022-09-07T14:17:34.198Z,34.64
2022-09-07T14:18:34.128Z,34.11
2022-09-07T14:19:34.166Z,34.67
2022-09-07T14:20:34.139Z,36.16
2022-09-07T14:21:34.157Z,35.94
2022-09-07T14:22:34.141Z,34.91
2022-09-07T14:23:34.433Z,34.29
2022-09-07T14:24:34.124Z,35.30
2022-09-07T14:26:15.854Z,35.79
2022-09-07T14:26:35.980Z,34.96
2022-09-07T14:27:34.100Z,34.05
2022-09-07T14:28:34.329Z,33.43
2022-09-07T14:29:34.046Z,31.95
2022-09-07T14:30:34.045Z,33.26
2022-09-07T14:31:34.739Z,33.79
2022-09-07T14:32:33.972Z,34.42